Alhaurin de la Torre, Spain
Current Conditions -  °F | °C
As of 5:30 AM on Friday 28 Nov 2014 (Local Time) from LEMG Reporting Station
Heavy Rain Heavy Rain  
Wind Chill: 59°   Ceiling: 2500
Heat Index: 59°   Visibility: 1.2mi
Dew Point: 57°   Wind: 29mph
Humidity: 94%   Direction: 90°E
Pressure: 29.12"   Gusts: 41mph
Location:  36.66°N, 4.56°W
Report Text: LEMG 280430Z 09025G36KT 060V120 2000 +RA FEW009 SCT012 BKN025 15/14 Q0986 NOSIG
Loading
Personal Weather Stations






























Interactive Weather Map New forecast layout! Learn more

10-Day Weather Forecast

Advertisements
Track Severe Weather on mobile